sensor_id;sensor_type;location;lat;lon;timestamp;P1;durP1;ratioP1;P2;durP2;ratioP2
38487;SDS011;57384;51.986;4.458;2023-11-21T00:01:59;5.68;;;5.47;;
38487;SDS011;57384;51.986;4.458;2023-11-21T00:04:44;5.97;;;5.72;;
38487;SDS011;57384;51.986;4.458;2023-11-21T00:07:28;6.93;;;6.63;;
38487;SDS011;57384;51.986;4.458;2023-11-21T00:10:12;8.07;;;7.78;;
38487;SDS011;57384;51.986;4.458;2023-11-21T00:13:00;9.00;;;8.70;;
38487;SDS011;57384;51.986;4.458;2023-11-21T00:15:44;8.90;;;8.60;;
38487;SDS011;57384;51.986;4.458;2023-11-21T00:18:28;9.85;;;9.55;;
38487;SDS011;57384;51.986;4.458;2023-11-21T00:21:16;9.98;;;9.68;;
38487;SDS011;57384;51.986;4.458;2023-11-21T00:24:00;10.00;;;9.70;;
38487;SDS011;57384;51.986;4.458;2023-11-21T00:26:46;13.55;;;13.05;;
38487;SDS011;57384;51.986;4.458;2023-11-21T00:29:31;13.38;;;12.68;;
38487;SDS011;57384;51.986;4.458;2023-11-21T00:32:20;13.23;;;12.82;;
38487;SDS011;57384;51.986;4.458;2023-11-21T00:35:10;14.02;;;13.63;;
38487;SDS011;57384;51.986;4.458;2023-11-21T00:37:54;14.23;;;13.82;;
38487;SDS011;57384;51.986;4.458;2023-11-21T00:40:41;13.80;;;13.35;;
38487;SDS011;57384;51.986;4.458;2023-11-21T00:43:25;14.57;;;14.15;;
38487;SDS011;57384;51.986;4.458;2023-11-21T00:46:11;14.37;;;13.87;;
38487;SDS011;57384;51.986;4.458;2023-11-21T00:49:03;15.05;;;14.55;;
38487;SDS011;57384;51.986;4.458;2023-11-21T00:51:47;16.10;;;15.60;;
38487;SDS011;57384;51.986;4.458;2023-11-21T00:54:31;16.42;;;15.82;;
38487;SDS011;57384;51.986;4.458;2023-11-21T00:57:15;15.18;;;14.68;;
38487;SDS011;57384;51.986;4.458;2023-11-21T00:59:59;16.17;;;15.68;;
38487;SDS011;57384;51.986;4.458;2023-11-21T01:02:46;16.17;;;15.25;;
38487;SDS011;57384;51.986;4.458;2023-11-21T01:05:31;15.18;;;14.75;;
38487;SDS011;57384;51.986;4.458;2023-11-21T01:08:15;15.00;;;14.50;;
38487;SDS011;57384;51.986;4.458;2023-11-21T01:11:00;12.98;;;12.57;;
38487;SDS011;57384;51.986;4.458;2023-11-21T01:13:53;13.10;;;12.50;;
38487;SDS011;57384;51.986;4.458;2023-11-21T01:16:39;14.00;;;13.50;;
38487;SDS011;57384;51.986;4.458;2023-11-21T01:19:29;14.05;;;13.65;;
38487;SDS011;57384;51.986;4.458;2023-11-21T01:22:16;11.85;;;11.55;;
38487;SDS011;57384;51.986;4.458;2023-11-21T01:25:02;12.80;;;12.40;;
38487;SDS011;57384;51.986;4.458;2023-11-21T01:27:50;11.73;;;11.32;;
38487;SDS011;57384;51.986;4.458;2023-11-21T01:30:37;12.73;;;12.25;;
38487;SDS011;57384;51.986;4.458;2023-11-21T01:33:23;12.25;;;11.48;;
38487;SDS011;57384;51.986;4.458;2023-11-21T01:36:08;12.90;;;12.40;;
38487;SDS011;57384;51.986;4.458;2023-11-21T01:38:55;12.70;;;12.25;;
38487;SDS011;57384;51.986;4.458;2023-11-21T01:41:39;10.55;;;10.25;;
38487;SDS011;57384;51.986;4.458;2023-11-21T01:44:26;10.20;;;9.80;;
38487;SDS011;57384;51.986;4.458;2023-11-21T01:47:11;9.77;;;9.48;;
38487;SDS011;57384;51.986;4.458;2023-11-21T01:49:58;10.27;;;9.88;;
38487;SDS011;57384;51.986;4.458;2023-11-21T01:52:43;11.35;;;10.98;;
38487;SDS011;57384;51.986;4.458;2023-11-21T01:55:29;11.25;;;10.85;;
38487;SDS011;57384;51.986;4.458;2023-11-21T01:58:13;8.45;;;8.25;;
38487;SDS011;57384;51.986;4.458;2023-11-21T02:00:57;10.05;;;9.75;;
38487;SDS011;57384;51.986;4.458;2023-11-21T02:03:41;11.85;;;10.52;;
38487;SDS011;57384;51.986;4.458;2023-11-21T02:06:31;8.15;;;7.95;;
38487;SDS011;57384;51.986;4.458;2023-11-21T02:09:16;8.68;;;8.38;;
38487;SDS011;57384;51.986;4.458;2023-11-21T02:12:02;11.57;;;9.07;;
38487;SDS011;57384;51.986;4.458;2023-11-21T02:14:49;8.43;;;8.20;;
38487;SDS011;57384;51.986;4.458;2023-11-21T02:17:33;9.70;;;9.30;;
38487;SDS011;57384;51.986;4.458;2023-11-21T02:20:20;9.73;;;9.27;;
38487;SDS011;57384;51.986;4.458;2023-11-21T02:23:08;8.05;;;7.85;;
38487;SDS011;57384;51.986;4.458;2023-11-21T02:25:54;9.25;;;8.95;;
38487;SDS011;57384;51.986;4.458;2023-11-21T02:28:43;8.15;;;7.95;;
38487;SDS011;57384;51.986;4.458;2023-11-21T02:31:30;8.77;;;8.48;;
38487;SDS011;57384;51.986;4.458;2023-11-21T02:34:17;9.85;;;9.35;;
38487;SDS011;57384;51.986;4.458;2023-11-21T02:37:02;8.40;;;8.10;;
38487;SDS011;57384;51.986;4.458;2023-11-21T02:39:46;7.63;;;7.43;;
38487;SDS011;57384;51.986;4.458;2023-11-21T02:42:30;7.75;;;7.50;;
38487;SDS011;57384;51.986;4.458;2023-11-21T02:45:20;8.77;;;8.35;;
38487;SDS011;57384;51.986;4.458;2023-11-21T02:48:07;8.20;;;7.88;;
38487;SDS011;57384;51.986;4.458;2023-11-21T02:50:52;8.35;;;7.95;;
38487;SDS011;57384;51.986;4.458;2023-11-21T02:53:38;7.28;;;7.07;;
38487;SDS011;57384;51.986;4.458;2023-11-21T02:56:39;9.25;;;8.70;;
38487;SDS011;57384;51.986;4.458;2023-11-21T02:59:23;8.23;;;7.90;;
38487;SDS011;57384;51.986;4.458;2023-11-21T03:02:16;7.65;;;7.43;;
38487;SDS011;57384;51.986;4.458;2023-11-21T03:05:01;7.63;;;7.43;;
38487;SDS011;57384;51.986;4.458;2023-11-21T03:07:47;7.40;;;7.20;;
38487;SDS011;57384;51.986;4.458;2023-11-21T03:10:31;7.88;;;7.43;;
38487;SDS011;57384;51.986;4.458;2023-11-21T03:13:15;6.88;;;6.68;;
38487;SDS011;57384;51.986;4.458;2023-11-21T03:16:00;9.63;;;9.15;;
38487;SDS011;57384;51.986;4.458;2023-11-21T03:18:44;7.88;;;7.63;;
38487;SDS011;57384;51.986;4.458;2023-11-21T03:21:28;7.70;;;7.50;;
38487;SDS011;57384;51.986;4.458;2023-11-21T03:24:14;9.10;;;8.68;;
38487;SDS011;57384;51.986;4.458;2023-11-21T03:27:06;7.57;;;7.28;;
38487;SDS011;57384;51.986;4.458;2023-11-21T03:29:55;7.72;;;7.43;;
38487;SDS011;57384;51.986;4.458;2023-11-21T03:32:39;9.20;;;8.90;;
38487;SDS011;57384;51.986;4.458;2023-11-21T03:35:23;7.70;;;7.50;;
38487;SDS011;57384;51.986;4.458;2023-11-21T03:38:10;7.20;;;7.00;;
38487;SDS011;57384;51.986;4.458;2023-11-21T03:40:54;7.70;;;7.45;;
38487;SDS011;57384;51.986;4.458;2023-11-21T03:43:38;7.22;;;7.03;;
38487;SDS011;57384;51.986;4.458;2023-11-21T03:46:22;8.02;;;7.72;;
38487;SDS011;57384;51.986;4.458;2023-11-21T03:49:06;7.65;;;7.45;;
38487;SDS011;57384;51.986;4.458;2023-11-21T03:51:50;7.82;;;7.55;;
38487;SDS011;57384;51.986;4.458;2023-11-21T03:54:40;8.57;;;8.27;;
38487;SDS011;57384;51.986;4.458;2023-11-21T03:57:24;7.95;;;7.65;;
38487;SDS011;57384;51.986;4.458;2023-11-21T04:00:09;8.25;;;8.05;;
38487;SDS011;57384;51.986;4.458;2023-11-21T04:02:56;8.10;;;7.82;;
38487;SDS011;57384;51.986;4.458;2023-11-21T04:05:40;8.00;;;7.53;;
38487;SDS011;57384;51.986;4.458;2023-11-21T04:08:24;8.10;;;7.90;;
38487;SDS011;57384;51.986;4.458;2023-11-21T04:11:09;9.20;;;8.32;;
38487;SDS011;57384;51.986;4.458;2023-11-21T04:13:53;6.97;;;6.63;;
38487;SDS011;57384;51.986;4.458;2023-11-21T04:16:38;6.47;;;6.10;;
38487;SDS011;57384;51.986;4.458;2023-11-21T04:19:22;6.45;;;6.25;;
38487;SDS011;57384;51.986;4.458;2023-11-21T04:22:06;6.28;;;6.07;;
38487;SDS011;57384;51.986;4.458;2023-11-21T04:24:59;6.47;;;6.18;;
38487;SDS011;57384;51.986;4.458;2023-11-21T04:27:44;7.00;;;6.80;;
38487;SDS011;57384;51.986;4.458;2023-11-21T04:30:28;6.78;;;6.57;;
38487;SDS011;57384;51.986;4.458;2023-11-21T04:33:16;7.18;;;6.68;;
38487;SDS011;57384;51.986;4.458;2023-11-21T04:36:02;6.45;;;6.25;;
38487;SDS011;57384;51.986;4.458;2023-11-21T04:38:46;6.03;;;5.82;;
38487;SDS011;57384;51.986;4.458;2023-11-21T04:41:30;6.05;;;5.85;;
38487;SDS011;57384;51.986;4.458;2023-11-21T04:44:14;7.38;;;6.82;;
38487;SDS011;57384;51.986;4.458;2023-11-21T04:46:58;5.90;;;5.70;;
38487;SDS011;57384;51.986;4.458;2023-11-21T04:49:44;5.72;;;5.53;;
38487;SDS011;57384;51.986;4.458;2023-11-21T04:52:30;6.80;;;6.50;;
38487;SDS011;57384;51.986;4.458;2023-11-21T04:55:16;5.43;;;5.22;;
38487;SDS011;57384;51.986;4.458;2023-11-21T04:58:03;6.75;;;6.55;;
38487;SDS011;57384;51.986;4.458;2023-11-21T05:00:47;6.25;;;6.05;;
38487;SDS011;57384;51.986;4.458;2023-11-21T05:03:34;6.88;;;6.50;;
38487;SDS011;57384;51.986;4.458;2023-11-21T05:06:18;5.57;;;5.28;;
38487;SDS011;57384;51.986;4.458;2023-11-21T05:09:05;6.13;;;5.88;;
38487;SDS011;57384;51.986;4.458;2023-11-21T05:11:50;5.55;;;5.25;;
38487;SDS011;57384;51.986;4.458;2023-11-21T05:14:34;4.10;;;4.00;;
38487;SDS011;57384;51.986;4.458;2023-11-21T05:17:18;6.03;;;5.78;;
38487;SDS011;57384;51.986;4.458;2023-11-21T05:20:04;6.30;;;5.70;;
38487;SDS011;57384;51.986;4.458;2023-11-21T05:22:52;5.70;;;5.50;;
38487;SDS011;57384;51.986;4.458;2023-11-21T05:25:39;5.60;;;5.40;;
38487;SDS011;57384;51.986;4.458;2023-11-21T05:28:29;5.40;;;5.20;;
38487;SDS011;57384;51.986;4.458;2023-11-21T05:31:13;4.25;;;4.15;;
38487;SDS011;57384;51.986;4.458;2023-11-21T05:34:05;5.88;;;5.45;;
38487;SDS011;57384;51.986;4.458;2023-11-21T05:36:53;4.80;;;4.65;;
38487;SDS011;57384;51.986;4.458;2023-11-21T05:39:46;6.05;;;5.63;;
38487;SDS011;57384;51.986;4.458;2023-11-21T05:42:39;4.60;;;4.45;;
38487;SDS011;57384;51.986;4.458;2023-11-21T05:45:29;7.03;;;5.00;;
38487;SDS011;57384;51.986;4.458;2023-11-21T05:51:21;6.30;;;5.75;;
38487;SDS011;57384;51.986;4.458;2023-11-21T05:54:08;7.60;;;5.60;;
38487;SDS011;57384;51.986;4.458;2023-11-21T05:56:53;6.20;;;5.80;;
38487;SDS011;57384;51.986;4.458;2023-11-21T05:59:39;4.25;;;4.15;;
38487;SDS011;57384;51.986;4.458;2023-11-21T06:02:24;4.20;;;4.10;;
38487;SDS011;57384;51.986;4.458;2023-11-21T06:05:10;4.38;;;4.28;;
38487;SDS011;57384;51.986;4.458;2023-11-21T06:07:55;5.10;;;4.90;;
38487;SDS011;57384;51.986;4.458;2023-11-21T06:10:40;6.00;;;5.80;;
38487;SDS011;57384;51.986;4.458;2023-11-21T06:13:24;6.05;;;5.85;;
38487;SDS011;57384;51.986;4.458;2023-11-21T06:16:08;5.65;;;5.45;;
38487;SDS011;57384;51.986;4.458;2023-11-21T06:18:52;5.55;;;5.35;;
38487;SDS011;57384;51.986;4.458;2023-11-21T06:21:36;5.15;;;4.95;;
38487;SDS011;57384;51.986;4.458;2023-11-21T06:24:20;6.63;;;6.40;;
38487;SDS011;57384;51.986;4.458;2023-11-21T06:27:04;5.20;;;5.00;;
38487;SDS011;57384;51.986;4.458;2023-11-21T06:29:49;5.32;;;5.13;;
38487;SDS011;57384;51.986;4.458;2023-11-21T06:32:33;5.32;;;5.13;;
38487;SDS011;57384;51.986;4.458;2023-11-21T06:35:26;5.35;;;5.15;;
38487;SDS011;57384;51.986;4.458;2023-11-21T06:38:10;5.95;;;5.75;;
38487;SDS011;57384;51.986;4.458;2023-11-21T06:41:03;5.07;;;4.88;;
38487;SDS011;57384;51.986;4.458;2023-11-21T06:43:48;5.50;;;5.30;;
38487;SDS011;57384;51.986;4.458;2023-11-21T06:46:34;4.93;;;4.72;;
38487;SDS011;57384;51.986;4.458;2023-11-21T06:49:18;4.85;;;4.65;;
38487;SDS011;57384;51.986;4.458;2023-11-21T06:52:02;4.72;;;4.53;;
38487;SDS011;57384;51.986;4.458;2023-11-21T06:54:49;12.95;;;5.28;;
38487;SDS011;57384;51.986;4.458;2023-11-21T06:57:37;3.95;;;3.85;;
38487;SDS011;57384;51.986;4.458;2023-11-21T07:00:21;4.47;;;4.38;;
38487;SDS011;57384;51.986;4.458;2023-11-21T07:03:07;3.80;;;3.70;;
38487;SDS011;57384;51.986;4.458;2023-11-21T07:05:54;5.28;;;5.07;;
38487;SDS011;57384;51.986;4.458;2023-11-21T07:08:46;6.28;;;5.82;;
38487;SDS011;57384;51.986;4.458;2023-11-21T07:11:37;4.95;;;4.63;;
38487;SDS011;57384;51.986;4.458;2023-11-21T07:14:22;5.00;;;4.80;;
38487;SDS011;57384;51.986;4.458;2023-11-21T07:17:16;3.60;;;3.50;;
38487;SDS011;57384;51.986;4.458;2023-11-21T07:20:03;4.38;;;4.28;;
38487;SDS011;57384;51.986;4.458;2023-11-21T07:22:51;4.13;;;4.03;;
38487;SDS011;57384;51.986;4.458;2023-11-21T07:28:39;5.40;;;5.07;;
38487;SDS011;57384;51.986;4.458;2023-11-21T07:31:23;4.20;;;4.10;;
38487;SDS011;57384;51.986;4.458;2023-11-21T07:34:13;6.30;;;5.80;;
38487;SDS011;57384;51.986;4.458;2023-11-21T07:37:03;5.45;;;5.25;;
38487;SDS011;57384;51.986;4.458;2023-11-21T07:39:56;5.88;;;5.68;;
38487;SDS011;57384;51.986;4.458;2023-11-21T07:42:40;5.43;;;5.22;;
38487;SDS011;57384;51.986;4.458;2023-11-21T07:45:27;6.15;;;5.95;;
38487;SDS011;57384;51.986;4.458;2023-11-21T07:48:13;6.03;;;5.82;;
38487;SDS011;57384;51.986;4.458;2023-11-21T07:50:58;7.88;;;7.47;;
38487;SDS011;57384;51.986;4.458;2023-11-21T07:53:45;6.47;;;6.28;;
38487;SDS011;57384;51.986;4.458;2023-11-21T07:56:29;7.65;;;7.35;;
38487;SDS011;57384;51.986;4.458;2023-11-21T07:59:13;7.38;;;7.07;;
38487;SDS011;57384;51.986;4.458;2023-11-21T08:02:01;7.55;;;7.35;;
38487;SDS011;57384;51.986;4.458;2023-11-21T08:04:51;9.20;;;8.80;;
38487;SDS011;57384;51.986;4.458;2023-11-21T08:07:38;8.25;;;7.95;;
38487;SDS011;57384;51.986;4.458;2023-11-21T08:10:22;7.40;;;7.20;;
38487;SDS011;57384;51.986;4.458;2023-11-21T08:13:07;9.02;;;8.73;;
38487;SDS011;57384;51.986;4.458;2023-11-21T08:16:01;8.73;;;8.43;;
38487;SDS011;57384;51.986;4.458;2023-11-21T08:18:45;8.15;;;7.82;;
38487;SDS011;57384;51.986;4.458;2023-11-21T08:21:33;7.85;;;7.65;;
38487;SDS011;57384;51.986;4.458;2023-11-21T08:24:19;8.82;;;8.43;;
38487;SDS011;57384;51.986;4.458;2023-11-21T08:27:04;9.90;;;9.18;;
38487;SDS011;57384;51.986;4.458;2023-11-21T08:29:48;8.15;;;7.95;;
38487;SDS011;57384;51.986;4.458;2023-11-21T08:35:30;7.40;;;7.20;;
38487;SDS011;57384;51.986;4.458;2023-11-21T08:38:17;8.75;;;8.27;;
38487;SDS011;57384;51.986;4.458;2023-11-21T08:41:01;10.73;;;10.23;;
38487;SDS011;57384;51.986;4.458;2023-11-21T08:43:49;9.77;;;9.48;;
38487;SDS011;57384;51.986;4.458;2023-11-21T08:46:34;9.20;;;8.90;;
38487;SDS011;57384;51.986;4.458;2023-11-21T08:49:23;9.02;;;8.73;;
38487;SDS011;57384;51.986;4.458;2023-11-21T08:52:07;8.98;;;8.70;;
38487;SDS011;57384;51.986;4.458;2023-11-21T08:54:52;10.38;;;10.07;;
38487;SDS011;57384;51.986;4.458;2023-11-21T08:57:36;11.63;;;11.23;;
38487;SDS011;57384;51.986;4.458;2023-11-21T09:00:21;11.82;;;11.32;;
38487;SDS011;57384;51.986;4.458;2023-11-21T09:03:05;10.98;;;10.68;;
38487;SDS011;57384;51.986;4.458;2023-11-21T09:06:05;13.02;;;12.63;;
38487;SDS011;57384;51.986;4.458;2023-11-21T09:08:59;10.60;;;10.30;;
38487;SDS011;57384;51.986;4.458;2023-11-21T09:11:43;13.35;;;12.95;;
38487;SDS011;57384;51.986;4.458;2023-11-21T09:14:27;13.73;;;13.32;;
38487;SDS011;57384;51.986;4.458;2023-11-21T09:17:11;11.63;;;11.30;;
38487;SDS011;57384;51.986;4.458;2023-11-21T09:19:55;11.25;;;10.95;;
38487;SDS011;57384;51.986;4.458;2023-11-21T09:22:39;12.50;;;12.15;;
38487;SDS011;57384;51.986;4.458;2023-11-21T09:25:25;10.55;;;10.25;;
38487;SDS011;57384;51.986;4.458;2023-11-21T09:28:11;11.82;;;11.48;;
38487;SDS011;57384;51.986;4.458;2023-11-21T09:30:38;13.38;;;12.90;;
38487;SDS011;57384;51.986;4.458;2023-11-21T09:33:07;12.48;;;12.07;;
38487;SDS011;57384;51.986;4.458;2023-11-21T09:35:40;11.00;;;10.70;;
38487;SDS011;57384;51.986;4.458;2023-11-21T09:38:07;12.17;;;11.83;;
38487;SDS011;57384;51.986;4.458;2023-11-21T09:40:34;11.63;;;11.32;;
38487;SDS011;57384;51.986;4.458;2023-11-21T09:43:00;12.87;;;12.47;;
38487;SDS011;57384;51.986;4.458;2023-11-21T09:45:35;12.13;;;11.82;;
38487;SDS011;57384;51.986;4.458;2023-11-21T09:48:05;11.82;;;11.52;;
38487;SDS011;57384;51.986;4.458;2023-11-21T09:50:35;13.38;;;12.98;;
38487;SDS011;57384;51.986;4.458;2023-11-21T09:55:39;9.50;;;9.23;;
38487;SDS011;57384;51.986;4.458;2023-11-21T09:58:12;11.95;;;11.45;;
38487;SDS011;57384;51.986;4.458;2023-11-21T10:00:41;14.57;;;13.98;;
38487;SDS011;57384;51.986;4.458;2023-11-21T10:03:13;15.38;;;14.88;;
38487;SDS011;57384;51.986;4.458;2023-11-21T10:05:43;13.25;;;12.85;;
38487;SDS011;57384;51.986;4.458;2023-11-21T10:08:12;11.63;;;11.32;;
38487;SDS011;57384;51.986;4.458;2023-11-21T10:10:43;12.70;;;12.30;;
38487;SDS011;57384;51.986;4.458;2023-11-21T10:13:12;14.20;;;13.60;;
38487;SDS011;57384;51.986;4.458;2023-11-21T10:15:40;13.73;;;13.32;;
38487;SDS011;57384;51.986;4.458;2023-11-21T10:18:08;13.88;;;13.40;;
38487;SDS011;57384;51.986;4.458;2023-11-21T10:20:35;12.77;;;12.43;;
38487;SDS011;57384;51.986;4.458;2023-11-21T10:23:02;13.52;;;13.13;;
38487;SDS011;57384;51.986;4.458;2023-11-21T10:25:31;13.77;;;13.35;;
38487;SDS011;57384;51.986;4.458;2023-11-21T10:27:59;13.93;;;13.50;;
38487;SDS011;57384;51.986;4.458;2023-11-21T10:30:38;13.52;;;13.13;;
38487;SDS011;57384;51.986;4.458;2023-11-21T10:33:05;13.30;;;12.85;;
38487;SDS011;57384;51.986;4.458;2023-11-21T10:38:05;10.60;;;10.25;;
38487;SDS011;57384;51.986;4.458;2023-11-21T10:40:32;13.33;;;12.93;;
38487;SDS011;57384;51.986;4.458;2023-11-21T10:43:08;12.77;;;12.38;;
38487;SDS011;57384;51.986;4.458;2023-11-21T10:45:36;13.10;;;12.70;;
38487;SDS011;57384;51.986;4.458;2023-11-21T10:48:08;14.15;;;13.65;;
38487;SDS011;57384;51.986;4.458;2023-11-21T10:50:36;12.35;;;11.95;;
38487;SDS011;57384;51.986;4.458;2023-11-21T10:53:04;11.88;;;11.55;;
38487;SDS011;57384;51.986;4.458;2023-11-21T10:55:35;13.73;;;13.18;;
38487;SDS011;57384;51.986;4.458;2023-11-21T10:58:04;13.80;;;13.40;;
38487;SDS011;57384;51.986;4.458;2023-11-21T11:00:40;13.30;;;12.88;;
38487;SDS011;57384;51.986;4.458;2023-11-21T11:03:07;12.57;;;12.23;;
38487;SDS011;57384;51.986;4.458;2023-11-21T11:08:04;11.10;;;10.80;;
38487;SDS011;57384;51.986;4.458;2023-11-21T11:10:33;12.63;;;12.23;;
38487;SDS011;57384;51.986;4.458;2023-11-21T11:13:00;12.68;;;12.27;;
38487;SDS011;57384;51.986;4.458;2023-11-21T11:15:28;13.23;;;12.82;;
38487;SDS011;57384;51.986;4.458;2023-11-21T11:20:27;11.70;;;11.13;;
38487;SDS011;57384;51.986;4.458;2023-11-21T11:23:22;11.10;;;10.70;;
38487;SDS011;57384;51.986;4.458;2023-11-21T11:28:47;13.30;;;12.82;;
38487;SDS011;57384;51.986;4.458;2023-11-21T11:34:48;13.70;;;13.30;;
38487;SDS011;57384;51.986;4.458;2023-11-21T11:37:27;15.13;;;14.68;;
38487;SDS011;57384;51.986;4.458;2023-11-21T11:39:57;15.55;;;15.05;;
38487;SDS011;57384;51.986;4.458;2023-11-21T11:42:39;14.13;;;13.73;;
38487;SDS011;57384;51.986;4.458;2023-11-21T11:45:33;16.33;;;15.75;;
38487;SDS011;57384;51.986;4.458;2023-11-21T11:48:10;14.93;;;14.48;;
38487;SDS011;57384;51.986;4.458;2023-11-21T11:51:11;15.82;;;15.32;;
38487;SDS011;57384;51.986;4.458;2023-11-21T11:53:49;14.65;;;14.25;;
38487;SDS011;57384;51.986;4.458;2023-11-21T11:56:29;16.38;;;15.88;;
38487;SDS011;57384;51.986;4.458;2023-11-21T11:58:59;15.23;;;14.75;;
38487;SDS011;57384;51.986;4.458;2023-11-21T12:01:31;15.65;;;15.15;;
38487;SDS011;57384;51.986;4.458;2023-11-21T12:06:41;15.25;;;14.77;;
38487;SDS011;57384;51.986;4.458;2023-11-21T12:09:18;15.63;;;14.93;;
38487;SDS011;57384;51.986;4.458;2023-11-21T12:11:46;14.10;;;13.70;;
38487;SDS011;57384;51.986;4.458;2023-11-21T12:14:14;14.52;;;14.13;;
38487;SDS011;57384;51.986;4.458;2023-11-21T12:16:44;14.40;;;14.00;;
38487;SDS011;57384;51.986;4.458;2023-11-21T12:19:12;16.52;;;15.93;;
38487;SDS011;57384;51.986;4.458;2023-11-21T12:21:39;14.45;;;14.00;;
38487;SDS011;57384;51.986;4.458;2023-11-21T12:24:12;13.65;;;13.20;;
38487;SDS011;57384;51.986;4.458;2023-11-21T12:26:45;11.55;;;11.25;;
38487;SDS011;57384;51.986;4.458;2023-11-21T12:29:21;15.07;;;14.48;;
38487;SDS011;57384;51.986;4.458;2023-11-21T12:32:12;13.35;;;12.85;;
38487;SDS011;57384;51.986;4.458;2023-11-21T12:34:39;15.88;;;15.38;;
38487;SDS011;57384;51.986;4.458;2023-11-21T12:37:13;12.68;;;12.27;;
38487;SDS011;57384;51.986;4.458;2023-11-21T12:47:21;6.00;;;5.80;;
38487;SDS011;57384;51.986;4.458;2023-11-21T12:50:33;6.60;;;6.20;;
38487;SDS011;57384;51.986;4.458;2023-11-21T12:53:45;5.18;;;4.97;;
38487;SDS011;57384;51.986;4.458;2023-11-21T12:56:47;4.18;;;4.07;;
38487;SDS011;57384;51.986;4.458;2023-11-21T13:03:28;4.78;;;4.57;;
38487;SDS011;57384;51.986;4.458;2023-11-21T13:06:34;4.07;;;3.97;;
38487;SDS011;57384;51.986;4.458;2023-11-21T13:09:27;5.03;;;4.82;;
38487;SDS011;57384;51.986;4.458;2023-11-21T13:12:13;4.50;;;4.40;;
38487;SDS011;57384;51.986;4.458;2023-11-21T13:15:03;5.03;;;4.82;;
38487;SDS011;57384;51.986;4.458;2023-11-21T13:20:44;5.15;;;4.85;;
38487;SDS011;57384;51.986;4.458;2023-11-21T13:23:34;5.03;;;4.82;;
38487;SDS011;57384;51.986;4.458;2023-11-21T13:26:09;4.78;;;4.63;;
38487;SDS011;57384;51.986;4.458;2023-11-21T13:28:52;4.18;;;4.07;;
38487;SDS011;57384;51.986;4.458;2023-11-21T13:38:58;5.20;;;5.00;;
38487;SDS011;57384;51.986;4.458;2023-11-21T13:42:16;4.47;;;4.38;;
38487;SDS011;57384;51.986;4.458;2023-11-21T13:45:31;5.43;;;5.22;;
38487;SDS011;57384;51.986;4.458;2023-11-21T13:48:29;4.90;;;4.70;;
38487;SDS011;57384;51.986;4.458;2023-11-21T13:51:17;4.78;;;4.65;;
38487;SDS011;57384;51.986;4.458;2023-11-21T13:53:56;5.17;;;4.97;;
38487;SDS011;57384;51.986;4.458;2023-11-21T14:31:11;4.68;;;4.55;;
38487;SDS011;57384;51.986;4.458;2023-11-21T14:44:50;4.45;;;4.35;;
38487;SDS011;57384;51.986;4.458;2023-11-21T14:48:13;6.22;;;5.70;;
38487;SDS011;57384;51.986;4.458;2023-11-21T14:51:29;5.80;;;5.60;;
38487;SDS011;57384;51.986;4.458;2023-11-21T14:54:19;5.90;;;5.57;;
38487;SDS011;57384;51.986;4.458;2023-11-21T14:57:23;4.45;;;4.35;;
38487;SDS011;57384;51.986;4.458;2023-11-21T15:00:11;4.40;;;4.20;;
38487;SDS011;57384;51.986;4.458;2023-11-21T15:06:29;5.68;;;5.38;;
38487;SDS011;57384;51.986;4.458;2023-11-21T15:12:19;5.00;;;4.80;;
38487;SDS011;57384;51.986;4.458;2023-11-21T15:15:35;4.57;;;4.47;;
38487;SDS011;57384;51.986;4.458;2023-11-21T15:22:02;3.85;;;3.75;;
38487;SDS011;57384;51.986;4.458;2023-11-21T15:28:37;4.20;;;4.10;;
38487;SDS011;57384;51.986;4.458;2023-11-21T15:35:07;4.18;;;4.05;;
38487;SDS011;57384;51.986;4.458;2023-11-21T15:38:02;5.35;;;4.90;;
38487;SDS011;57384;51.986;4.458;2023-11-21T15:41:09;4.15;;;4.05;;
38487;SDS011;57384;51.986;4.458;2023-11-21T15:47:30;4.65;;;4.45;;
38487;SDS011;57384;51.986;4.458;2023-11-21T15:50:16;4.65;;;4.45;;
38487;SDS011;57384;51.986;4.458;2023-11-21T15:53:03;3.90;;;3.80;;
38487;SDS011;57384;51.986;4.458;2023-11-21T15:55:55;4.82;;;4.63;;
38487;SDS011;57384;51.986;4.458;2023-11-21T15:58:54;3.95;;;3.65;;
38487;SDS011;57384;51.986;4.458;2023-11-21T16:01:42;4.57;;;4.38;;
38487;SDS011;57384;51.986;4.458;2023-11-21T16:04:30;5.13;;;4.72;;
38487;SDS011;57384;51.986;4.458;2023-11-21T16:10:20;3.50;;;3.40;;
38487;SDS011;57384;51.986;4.458;2023-11-21T16:13:14;4.10;;;3.97;;
38487;SDS011;57384;51.986;4.458;2023-11-21T16:16:01;3.30;;;3.20;;
38487;SDS011;57384;51.986;4.458;2023-11-21T16:19:04;7.28;;;4.18;;
38487;SDS011;57384;51.986;4.458;2023-11-21T16:21:54;3.08;;;2.97;;
38487;SDS011;57384;51.986;4.458;2023-11-21T16:24:44;3.53;;;3.42;;
38487;SDS011;57384;51.986;4.458;2023-11-21T16:27:28;3.85;;;3.75;;
38487;SDS011;57384;51.986;4.458;2023-11-21T16:30:12;3.85;;;3.75;;
38487;SDS011;57384;51.986;4.458;2023-11-21T16:33:04;4.32;;;4.13;;
38487;SDS011;57384;51.986;4.458;2023-11-21T16:36:05;3.00;;;2.90;;
38487;SDS011;57384;51.986;4.458;2023-11-21T16:45:37;3.83;;;3.63;;
38487;SDS011;57384;51.986;4.458;2023-11-21T19:22:37;2.83;;;2.72;;
38487;SDS011;57384;51.986;4.458;2023-11-21T19:42:49;3.45;;;3.25;;
38487;SDS011;57384;51.986;4.458;2023-11-21T20:34:50;3.55;;;3.45;;
38487;SDS011;57384;51.986;4.458;2023-11-21T20:52:04;3.30;;;3.20;;
38487;SDS011;57384;51.986;4.458;2023-11-21T21:28:30;4.78;;;4.53;;
38487;SDS011;57384;51.986;4.458;2023-11-21T21:46:18;3.22;;;3.13;;
38487;SDS011;57384;51.986;4.458;2023-11-21T21:48:58;3.08;;;2.97;;
38487;SDS011;57384;51.986;4.458;2023-11-21T21:55:28;2.55;;;2.45;;
38487;SDS011;57384;51.986;4.458;2023-11-21T22:05:27;3.30;;;3.20;;
38487;SDS011;57384;51.986;4.458;2023-11-21T22:19:34;3.28;;;3.17;;
38487;SDS011;57384;51.986;4.458;2023-11-21T22:22:48;3.00;;;2.90;;
38487;SDS011;57384;51.986;4.458;2023-11-21T22:29:41;5.65;;;5.35;;
38487;SDS011;57384;51.986;4.458;2023-11-21T22:39:36;3.38;;;3.20;;
38487;SDS011;57384;51.986;4.458;2023-11-21T23:07:20;3.50;;;3.40;;
38487;SDS011;57384;51.986;4.458;2023-11-21T23:21:15;4.53;;;4.32;;
38487;SDS011;57384;51.986;4.458;2023-11-21T23:24:32;4.15;;;3.85;;
38487;SDS011;57384;51.986;4.458;2023-11-21T23:31:24;3.45;;;3.33;;
38487;SDS011;57384;51.986;4.458;2023-11-21T23:35:01;3.53;;;3.35;;
38487;SDS011;57384;51.986;4.458;2023-11-21T23:41:27;3.60;;;3.50;;
38487;SDS011;57384;51.986;4.458;2023-11-21T23:47:45;3.80;;;3.70;;
38487;SDS011;57384;51.986;4.458;2023-11-21T23:50:58;4.32;;;4.13;;
38487;SDS011;57384;51.986;4.458;2023-11-21T23:57:14;5.68;;;3.75;;
